Aeroporto :
LOGIN :

Iscrizione | Disclaimer

   EN    FR    IT 

 










Sommario :    VFR   VFR Marginale   IFR   IFR Intensivo   IFR Molto Intensivo
Visibilità : 
Base nubi : 
>= 8 km
>= 3000ft
5 / 8 km
1000 / 3000 ft
1500m / 5 km
500 / 1000 ft
800 / 1500m
200 / 500 ft
< 800m
< 200 ft
Simboli :   Temporali  Nebbia  Neve Forte  Precipitazioni Forti  Vento > 20 kt
SIGMETs :   Varie  Temporali  Ghiacco  Turbolenza  Onda orograficha  Ceneri Vulcaniche






- Altitudine del aeroporto : 15 ft
- Codice IATA : BHD


EGAC - George Best Belfast City

ULTIMO METAR :
  • 171420Z AUTO VRB03KT 9999 BKN022/// 08/05 Q1017

METARs OBSOLETI :
  • 171350Z AUTO VRB03KT 9999 BKN020/// BKN024/// OVC042/// 08/05 Q1017
  • 171320Z AUTO 33004KT 300V010 9999 FEW025/// BKN031/// 08/05 Q1017
  • 171250Z AUTO VRB03KT 9999 FEW022/// SCT030/// 07/05 Q1016
  • 171220Z AUTO VRB03KT 9999 BKN025/// 07/04 Q1016
  • 171150Z AUTO 01004KT 320V100 9999 SCT033/// BKN040/// 07/04 Q1016

TAF TAF EGAC
Valido dal 17 a 15 ore il 17 a 22 ore UTC


171359Z 1715/1722 VRB04KT 9999 FEW020 SCT024
PROB30
TEMPO 1715/1718 8000 -SHRA
ATIS : +44 02890 935 124



MetMap, La meteo Aeronautica in un colpo d'occhio ! - Copyright ORBIFLY Dicembre 2007 - Disclaimer

ORBIFLY MET'MAP TEAM :

Programmazione e sviluppo : Alexandra Zaïnal
Concezione e sviluppo : Baudouin d'Aumeries
Co-Programmazione e sviluppo : Marc-Olivier Méhu
Supporto tecnico e logistico : Manuel Goepfert
Aiuto per la traduzione : Arnaldo La Scala

Contatto : metmap@orbifly.com




FONTI E CREDITI :

   NOAA